Time;durP1;ratioP1;P1;durP2;ratioP2;P2;SDS_P1;SDS_P2;PMS_P1;PMS_P2;Temp;Humidity;BMP_temperature;BMP_pressure;BME280_temperature;BME280_humidity;BME280_pressure;Samples;Min_cycle;Max_cycle;Signal;HPM_P1;HPM_P2
2021/03/26 00:02:10;;;;;;;8.23;5.68;;;11.20;93.80;;;;;;5092674;28;20343;-73
2021/03/26 00:04:37;;;;;;;8.98;6.22;;;11.20;94.00;;;;;;5092580;28;20362;-73
2021/03/26 00:07:03;;;;;;;9.25;6.03;;;11.20;93.90;;;;;;5092329;28;20212;-73
2021/03/26 00:09:34;;;;;;;9.25;5.65;;;11.30;94.40;;;;;;5092867;28;20205;-73
2021/03/26 00:12:07;;;;;;;9.73;5.72;;;11.20;94.60;;;;;;5092202;28;20293;-73
2021/03/26 00:14:34;;;;;;;10.55;6.05;;;11.10;94.60;;;;;;5092573;28;20308;-72
2021/03/26 00:17:00;;;;;;;8.27;6.18;;;11.30;94.70;;;;;;5092006;28;20293;-70
2021/03/26 00:19:26;;;;;;;8.32;5.47;;;11.30;94.40;;;;;;5092025;28;20317;-71
2021/03/26 00:21:53;;;;;;;8.32;5.38;;;11.40;94.80;;;;;;5092397;28;20194;-70
2021/03/26 00:24:19;;;;;;;9.20;5.85;;;11.50;94.80;;;;;;5092363;28;20222;-71
2021/03/26 00:26:46;;;;;;;8.55;6.22;;;11.50;94.10;;;;;;5092248;28;20179;-70
2021/03/26 00:29:13;;;;;;;8.05;6.65;;;11.60;94.10;;;;;;5092244;28;20236;-71
2021/03/26 00:31:40;;;;;;;10.40;6.57;;;11.60;93.90;;;;;;5092140;28;20289;-70
2021/03/26 00:34:06;;;;;;;9.00;6.00;;;11.70;93.90;;;;;;5091840;28;20270;-71
2021/03/26 00:36:34;;;;;;;9.85;6.68;;;11.50;93.70;;;;;;5095761;28;20206;-69
2021/03/26 00:39:01;;;;;;;8.82;6.00;;;11.50;94.30;;;;;;5095939;28;20584;-70
2021/03/26 00:41:27;;;;;;;9.60;6.47;;;11.50;94.30;;;;;;5095781;28;20204;-68
2021/03/26 00:43:54;;;;;;;8.85;6.35;;;11.50;94.70;;;;;;5095876;28;20699;-69
2021/03/26 00:46:23;;;;;;;8.48;6.03;;;11.50;94.20;;;;;;5095187;28;20795;-75
2021/03/26 00:48:49;;;;;;;11.43;6.80;;;11.50;94.10;;;;;;5095475;28;20198;-74
2021/03/26 00:51:15;;;;;;;10.88;7.00;;;11.50;94.20;;;;;;5095619;28;20292;-73
2021/03/26 00:53:42;;;;;;;11.13;6.75;;;11.60;94.30;;;;;;5095258;28;20260;-73
2021/03/26 00:56:08;;;;;;;10.32;6.50;;;11.50;94.10;;;;;;5095222;28;20285;-73
2021/03/26 00:58:34;;;;;;;10.48;6.53;;;11.50;94.20;;;;;;5095201;28;20729;-72
2021/03/26 01:01:02;;;;;;;11.80;7.28;;;11.40;94.20;;;;;;5095373;28;20288;-73
2021/03/26 01:03:30;;;;;;;8.52;6.50;;;11.30;94.30;;;;;;5094966;28;20297;-72
2021/03/26 01:05:59;;;;;;;11.20;6.78;;;11.30;94.30;;;;;;5095229;28;20617;-71
2021/03/26 01:08:25;;;;;;;13.75;7.70;;;11.30;94.30;;;;;;5095352;28;20368;-72
2021/03/26 01:10:54;;;;;;;9.73;6.80;;;11.10;94.60;;;;;;5095022;28;20739;-72
2021/03/26 01:13:21;;;;;;;11.93;7.10;;;11.10;95.00;;;;;;5094912;28;20201;-75
2021/03/26 01:15:48;;;;;;;10.45;7.00;;;11.00;95.00;;;;;;5095331;28;20297;-72
2021/03/26 01:18:23;;;;;;;12.43;7.30;;;11.00;95.00;;;;;;5095282;28;20221;-72
2021/03/26 01:20:49;;;;;;;9.85;7.00;;;10.90;95.10;;;;;;5095459;28;20276;-71
2021/03/26 01:23:16;;;;;;;10.43;6.53;;;10.90;95.40;;;;;;5094768;28;20296;-72
2021/03/26 01:25:42;;;;;;;10.52;7.00;;;10.80;95.60;;;;;;5094417;28;20222;-72
2021/03/26 01:28:13;;;;;;;10.00;7.88;;;10.50;95.90;;;;;;5095107;28;20198;-72
2021/03/26 01:30:39;;;;;;;10.63;7.30;;;10.50;96.20;;;;;;5095762;28;20339;-72
2021/03/26 01:33:05;;;;;;;12.95;7.28;;;10.40;96.50;;;;;;5094859;28;20202;-73
2021/03/26 01:35:35;;;;;;;12.27;7.60;;;10.40;96.70;;;;;;5094848;28;20230;-72
2021/03/26 01:38:01;;;;;;;11.05;6.82;;;10.30;97.00;;;;;;5094647;28;20202;-71
2021/03/26 01:40:30;;;;;;;11.65;7.75;;;10.40;97.20;;;;;;5094680;28;20254;-71
2021/03/26 01:43:06;;;;;;;11.10;7.32;;;10.40;97.20;;;;;;5094903;28;20202;-71
2021/03/26 01:45:33;;;;;;;12.00;7.93;;;10.30;97.40;;;;;;5094111;28;20261;-74
2021/03/26 01:47:59;;;;;;;12.70;8.27;;;10.30;97.70;;;;;;5095865;28;20198;-74
2021/03/26 01:50:28;;;;;;;9.93;7.07;;;10.20;97.80;;;;;;5097118;28;20624;-73
2021/03/26 01:52:56;;;;;;;12.05;8.13;;;10.20;98.10;;;;;;5096255;28;20262;-72
2021/03/26 01:55:28;;;;;;;14.75;8.70;;;9.90;99.00;;;;;;5094909;28;20260;-72
2021/03/26 01:57:54;;;;;;;15.05;7.88;;;9.60;99.70;;;;;;5095008;28;20202;-72
2021/03/26 02:00:29;;;;;;;12.48;7.95;;;9.60;99.90;;;;;;5094180;28;20210;-74
2021/03/26 02:02:56;;;;;;;10.15;6.70;;;9.70;99.90;;;;;;5094106;28;20288;-73
2021/03/26 02:05:27;;;;;;;10.73;7.05;;;9.70;99.90;;;;;;5094298;28;20222;-73
2021/03/26 02:07:54;;;;;;;9.40;6.65;;;9.70;99.90;;;;;;5094808;28;20228;-72
2021/03/26 02:10:23;;;;;;;9.15;6.75;;;9.60;99.90;;;;;;5095603;28;20206;-72
2021/03/26 02:12:58;;;;;;;11.10;6.80;;;9.60;99.90;;;;;;5095348;28;20293;-72
2021/03/26 02:15:28;;;;;;;11.88;6.63;;;9.70;99.90;;;;;;5096015;28;20217;-69
2021/03/26 02:17:55;;;;;;;10.75;6.32;;;9.60;99.90;;;;;;5095529;28;20292;-70
2021/03/26 02:20:45;;;;;;;10.85;6.82;;;9.60;99.90;;;;;;5095485;28;20208;-70
2021/03/26 02:23:14;;;;;;;10.70;6.43;;;9.70;99.90;;;;;;5095065;28;20611;-69
2021/03/26 02:25:41;;;;;;;17.77;7.10;;;9.70;99.90;;;;;;5095593;28;20332;-69
2021/03/26 02:28:08;;;;;;;8.90;6.88;;;9.60;99.90;;;;;;5094776;28;20206;-69
2021/03/26 02:30:43;;;;;;;11.73;7.32;;;9.60;99.90;;;;;;5094969;28;20202;-70
2021/03/26 02:33:10;;;;;;;11.63;6.75;;;9.60;99.90;;;;;;5095075;28;20202;-70
2021/03/26 02:35:39;;;;;;;11.63;7.43;;;9.60;99.90;;;;;;5095155;28;20313;-69
2021/03/26 02:38:16;;;;;;;11.32;6.80;;;9.60;99.90;;;;;;5094674;28;20644;-69
2021/03/26 02:40:47;;;;;;;9.52;6.80;;;9.70;99.90;;;;;;5095339;28;20747;-69
2021/03/26 02:43:24;;;;;;;12.30;7.13;;;9.70;99.90;;;;;;5095177;28;20656;-70
2021/03/26 02:45:57;;;;;;;11.43;7.25;;;9.70;99.90;;;;;;5094570;28;20658;-70
2021/03/26 02:48:32;;;;;;;10.25;6.60;;;9.50;99.90;;;;;;5094986;28;20288;-69
2021/03/26 02:51:08;;;;;;;11.40;7.93;;;9.40;99.90;;;;;;5095155;28;20202;-69
2021/03/26 02:53:44;;;;;;;13.10;7.85;;;9.00;99.90;;;;;;5095212;28;20617;-69
2021/03/26 02:56:15;;;;;;;14.02;7.88;;;8.80;99.90;;;;;;5094689;28;20190;-69
2021/03/26 02:58:47;;;;;;;11.77;7.90;;;8.90;99.90;;;;;;5094236;28;20230;-69
2021/03/26 03:01:19;;;;;;;12.68;7.93;;;8.90;99.90;;;;;;5094848;28;20202;-69
2021/03/26 03:03:49;;;;;;;12.18;7.60;;;9.10;99.90;;;;;;5094777;28;20335;-69
2021/03/26 03:06:23;;;;;;;11.98;8.05;;;9.20;99.90;;;;;;5094233;28;20679;-69
2021/03/26 03:08:53;;;;;;;11.15;7.07;;;9.10;99.90;;;;;;5094625;28;20743;-69
2021/03/26 03:11:23;;;;;;;11.88;7.25;;;9.10;99.90;;;;;;5094559;28;20343;-70
2021/03/26 03:13:53;;;;;;;10.60;6.47;;;9.10;99.90;;;;;;5094310;28;20224;-69
2021/03/26 03:16:24;;;;;;;10.40;6.65;;;9.10;99.90;;;;;;5095014;28;20195;-69
2021/03/26 03:18:57;;;;;;;11.27;6.95;;;9.10;99.90;;;;;;5094427;28;20584;-69
2021/03/26 03:21:30;;;;;;;11.68;7.35;;;9.00;99.90;;;;;;5094630;28;20292;-70
2021/03/26 03:24:05;;;;;;;11.65;7.22;;;9.00;99.90;;;;;;5094460;28;20226;-69
2021/03/26 03:26:39;;;;;;;12.43;7.22;;;8.90;99.90;;;;;;5094605;28;20190;-69
2021/03/26 03:29:12;;;;;;;12.35;6.90;;;8.90;99.90;;;;;;5094329;28;20201;-69
2021/03/26 03:31:48;;;;;;;11.88;7.80;;;8.80;99.90;;;;;;5094411;28;20202;-70
2021/03/26 03:34:22;;;;;;;11.50;8.10;;;8.80;99.90;;;;;;5094493;28;20313;-69
2021/03/26 03:36:53;;;;;;;12.88;7.65;;;8.80;99.90;;;;;;5094253;28;20196;-69
2021/03/26 03:39:27;;;;;;;11.02;7.05;;;8.90;99.90;;;;;;5093923;28;20313;-69
2021/03/26 03:42:00;;;;;;;9.70;5.93;;;8.90;99.90;;;;;;5094194;28;20205;-69
2021/03/26 03:44:36;;;;;;;12.55;6.97;;;8.80;99.90;;;;;;5093594;28;20241;-70
2021/03/26 03:47:07;;;;;;;14.40;7.75;;;8.80;99.90;;;;;;5094178;28;20316;-68
2021/03/26 03:49:40;;;;;;;13.48;7.75;;;8.90;99.90;;;;;;5094523;28;20360;-69
2021/03/26 03:52:14;;;;;;;12.27;7.30;;;8.90;99.90;;;;;;5094047;28;20202;-69
2021/03/26 03:54:47;;;;;;;10.85;6.40;;;8.90;99.90;;;;;;5093843;28;20218;-69
2021/03/26 03:57:18;;;;;;;11.35;7.05;;;8.80;99.90;;;;;;5093624;28;20247;-69
2021/03/26 03:59:52;;;;;;;12.00;6.78;;;8.80;99.90;;;;;;5094043;28;20312;-69
2021/03/26 04:02:22;;;;;;;12.90;7.53;;;8.80;99.90;;;;;;5093775;28;20292;-70
2021/03/26 04:04:55;;;;;;;11.52;7.70;;;8.90;99.90;;;;;;5093819;28;20226;-70
2021/03/26 04:07:26;;;;;;;10.40;6.47;;;8.80;99.90;;;;;;5093961;28;20296;-69
2021/03/26 04:09:59;;;;;;;11.75;7.63;;;8.70;99.90;;;;;;5095396;28;20202;-69
2021/03/26 04:12:34;;;;;;;14.98;8.07;;;8.80;99.90;;;;;;5097794;28;20668;-69
2021/03/26 04:15:08;;;;;;;9.80;6.90;;;8.70;99.90;;;;;;5098013;28;20217;-69
2021/03/26 04:17:44;;;;;;;15.80;8.88;;;8.70;99.90;;;;;;5098302;28;20292;-69
2021/03/26 04:20:18;;;;;;;10.70;7.03;;;8.80;99.90;;;;;;5098302;28;20229;-69
2021/03/26 04:22:50;;;;;;;12.80;7.80;;;8.80;99.90;;;;;;5098431;28;20270;-69
2021/03/26 04:25:22;;;;;;;12.60;7.03;;;8.90;99.90;;;;;;5098712;28;20248;-69
2021/03/26 04:27:58;;;;;;;12.07;7.35;;;9.00;99.90;;;;;;5097850;28;20212;-69
2021/03/26 04:30:28;;;;;;;9.05;6.60;;;9.00;99.90;;;;;;5098173;28;20198;-69
2021/03/26 04:32:56;;;;;;;10.88;7.38;;;9.00;99.90;;;;;;5098364;28;20209;-69
2021/03/26 04:35:25;;;;;;;11.77;7.55;;;9.00;99.90;;;;;;5098295;28;20312;-69
2021/03/26 04:38:09;;;;;;;10.93;7.22;;;8.90;99.90;;;;;;5097443;28;20644;-68
2021/03/26 04:40:41;;;;;;;11.02;7.43;;;8.90;99.90;;;;;;5097580;28;20284;-70
2021/03/26 04:43:18;;;;;;;13.43;8.05;;;8.50;99.90;;;;;;5097240;28;20202;-69
2021/03/26 04:45:50;;;;;;;12.35;7.20;;;8.30;99.90;;;;;;5097084;28;20230;-69
2021/03/26 04:48:22;;;;;;;10.20;7.13;;;8.40;99.90;;;;;;5097888;28;20719;-69
2021/03/26 04:50:59;;;;;;;11.52;7.82;;;8.50;99.90;;;;;;5097802;28;20210;-69
2021/03/26 04:53:33;;;;;;;12.40;7.40;;;8.60;99.90;;;;;;5097757;28;20292;-69
2021/03/26 04:56:06;;;;;;;12.32;8.05;;;8.60;99.90;;;;;;5097498;28;20194;-69
2021/03/26 04:58:37;;;;;;;10.85;7.90;;;8.70;99.90;;;;;;5096770;28;20575;-69
2021/03/26 05:01:09;;;;;;;12.18;7.20;;;8.70;99.90;;;;;;5096906;28;20670;-69
2021/03/26 05:03:37;;;;;;;12.82;7.72;;;8.90;99.90;;;;;;5097179;28;20344;-69
2021/03/26 05:06:09;;;;;;;15.52;7.93;;;8.90;99.90;;;;;;5097648;28;20205;-68
2021/03/26 05:08:38;;;;;;;14.45;7.85;;;8.60;99.90;;;;;;5096859;28;20198;-69
2021/03/26 05:11:07;;;;;;;13.20;7.40;;;8.30;99.90;;;;;;5096649;28;20202;-69
2021/03/26 05:13:38;;;;;;;14.18;8.13;;;8.20;99.90;;;;;;5096922;28;20240;-69
2021/03/26 05:16:09;;;;;;;13.55;7.28;;;8.30;99.90;;;;;;5097610;28;20187;-69
2021/03/26 05:18:41;;;;;;;12.15;7.65;;;8.50;99.90;;;;;;5097786;28;20230;-69
2021/03/26 05:21:13;;;;;;;17.30;8.40;;;8.60;99.90;;;;;;5097415;28;20292;-70
2021/03/26 05:23:44;;;;;;;10.77;7.82;;;8.70;99.90;;;;;;5097162;28;20250;-69
2021/03/26 05:26:11;;;;;;;10.85;7.70;;;8.80;99.90;;;;;;5096787;28;20244;-69
2021/03/26 05:28:41;;;;;;;12.68;7.60;;;8.50;99.90;;;;;;5096609;28;20556;-69
2021/03/26 05:31:11;;;;;;;12.80;8.55;;;8.30;99.90;;;;;;5096948;28;20198;-68
2021/03/26 05:33:40;;;;;;;12.75;7.82;;;8.30;99.90;;;;;;5097361;28;20259;-69
2021/03/26 05:36:12;;;;;;;11.93;7.65;;;8.40;99.90;;;;;;5095871;28;20744;-68
2021/03/26 05:38:42;;;;;;;15.02;8.27;;;8.20;99.90;;;;;;5096119;28;20232;-69
2021/03/26 05:41:39;;;;;;;14.35;8.10;;;8.40;99.90;;;;;;5096488;28;20298;-69
2021/03/26 05:44:30;;;;;;;13.20;7.95;;;8.50;99.90;;;;;;5096054;28;20786;-70
2021/03/26 05:47:20;;;;;;;13.77;8.00;;;8.50;99.90;;;;;;5095649;28;20683;-69
2021/03/26 05:49:58;;;;;;;20.23;8.50;;;8.20;99.90;;;;;;5095987;28;20616;-69
2021/03/26 05:52:46;;;;;;;14.38;8.52;;;8.00;99.90;;;;;;5096115;28;20667;-69
2021/03/26 05:55:37;;;;;;;11.75;7.55;;;8.20;99.90;;;;;;5095938;28;20222;-69
2021/03/26 05:58:20;;;;;;;14.68;7.95;;;8.20;99.90;;;;;;5096093;28;20289;-68
2021/03/26 06:01:03;;;;;;;13.85;9.30;;;8.40;99.90;;;;;;5096646;28;20206;-69
2021/03/26 06:03:46;;;;;;;14.20;8.70;;;8.40;99.90;;;;;;5096893;28;20607;-69
2021/03/26 06:06:54;;;;;;;14.23;8.65;;;8.50;99.90;;;;;;5096189;28;20239;-68
2021/03/26 06:09:50;;;;;;;14.70;9.30;;;8.40;99.90;;;;;;5047893;28;20432;-69
2021/03/26 06:13:03;;;;;;;13.70;9.35;;;8.40;99.90;;;;;;5096508;28;20224;-69
2021/03/26 06:15:54;;;;;;;14.60;9.52;;;8.70;99.90;;;;;;5096000;28;20584;-69
2021/03/26 06:18:49;;;;;;;18.15;9.90;;;8.80;99.90;;;;;;5095488;28;20201;-68
2021/03/26 06:21:28;;;;;;;16.10;9.48;;;9.00;99.90;;;;;;5096340;28;20221;-69
2021/03/26 06:24:25;;;;;;;14.43;9.63;;;9.10;99.90;;;;;;5096094;28;20309;-69
2021/03/26 06:27:20;;;;;;;17.50;11.20;;;9.20;99.90;;;;;;5090099;28;20206;-69
2021/03/26 06:30:00;;;;;;;14.18;10.15;;;9.40;99.90;;;;;;5092864;28;20194;-69
2021/03/26 06:33:03;;;;;;;18.17;10.35;;;9.60;99.90;;;;;;5094880;28;20202;-69
2021/03/26 06:35:56;;;;;;;15.10;10.18;;;9.50;99.90;;;;;;5096343;28;20221;-69
2021/03/26 06:38:41;;;;;;;15.50;10.77;;;9.40;99.90;;;;;;5094644;28;20297;-68
2021/03/26 06:41:17;;;;;;;14.18;10.55;;;9.50;99.90;;;;;;5094942;28;20201;-69
2021/03/26 06:44:16;;;;;;;17.23;10.95;;;9.50;99.90;;;;;;5094899;28;20334;-69
2021/03/26 06:46:52;;;;;;;16.73;11.32;;;9.50;99.90;;;;;;5095145;28;20221;-69
2021/03/26 06:49:27;;;;;;;16.30;11.27;;;9.50;99.90;;;;;;5094692;28;20280;-69
2021/03/26 06:52:20;;;;;;;19.25;10.98;;;9.50;99.90;;;;;;5095175;28;20297;-69
2021/03/26 06:55:23;;;;;;;17.42;11.13;;;9.70;99.90;;;;;;5094879;28;20230;-69
2021/03/26 06:58:08;;;;;;;20.60;12.63;;;9.80;99.90;;;;;;5095413;28;20207;-69
2021/03/26 07:01:03;;;;;;;17.85;12.23;;;9.70;99.90;;;;;;5095618;28;20222;-69
2021/03/26 07:03:50;;;;;;;16.92;11.77;;;9.60;99.90;;;;;;5095033;28;20263;-69
2021/03/26 07:06:42;;;;;;;19.15;11.52;;;9.80;99.90;;;;;;5094468;28;20204;-69
2021/03/26 07:09:20;;;;;;;18.17;11.90;;;10.00;99.90;;;;;;5094728;28;20209;-69
2021/03/26 07:12:04;;;;;;;18.90;12.90;;;10.30;99.90;;;;;;5094188;28;20235;-69
2021/03/26 07:14:40;;;;;;;19.27;12.00;;;10.50;99.90;;;;;;5094369;28;20221;-69
2021/03/26 07:17:34;;;;;;;20.25;12.85;;;10.70;99.90;;;;;;5093708;28;20576;-69
2021/03/26 07:20:24;;;;;;;17.52;12.57;;;10.80;99.90;;;;;;5094329;28;20229;-69
2021/03/26 07:23:24;;;;;;;17.83;12.55;;;11.00;99.90;;;;;;5094031;28;20726;-69
2021/03/26 07:26:09;;;;;;;20.67;12.88;;;11.10;99.90;;;;;;5094670;28;20610;-69
2021/03/26 07:28:40;;;;;;;19.85;13.23;;;11.20;99.90;;;;;;5094072;28;20212;-69
2021/03/26 07:31:27;;;;;;;26.98;13.95;;;11.00;99.90;;;;;;5093853;28;20208;-69
2021/03/26 07:34:01;;;;;;;18.63;13.20;;;11.10;99.90;;;;;;5094510;28;20229;-69
2021/03/26 07:36:53;;;;;;;19.20;12.93;;;11.10;99.90;;;;;;5093924;28;20200;-69
2021/03/26 07:39:39;;;;;;;18.42;13.13;;;11.20;99.90;;;;;;5093803;28;20222;-69
2021/03/26 07:42:38;;;;;;;15.10;11.35;;;11.30;99.90;;;;;;5094035;28;20205;-69
2021/03/26 07:45:20;;;;;;;15.70;11.23;;;11.20;99.90;;;;;;5095144;28;20241;-69
2021/03/26 07:48:28;;;;;;;17.75;11.65;;;11.20;99.90;;;;;;5097850;28;20198;-69
2021/03/26 07:50:58;;;;;;;17.35;11.85;;;11.40;99.90;;;;;;5098239;28;20202;-69
2021/03/26 07:54:03;;;;;;;16.00;11.05;;;11.60;99.90;;;;;;5098234;28;20259;-69
2021/03/26 07:57:01;;;;;;;20.02;11.75;;;11.60;99.90;;;;;;5035178;28;20200;-68
2021/03/26 07:59:56;;;;;;;17.67;12.38;;;11.70;99.90;;;;;;5098022;28;20229;-69
2021/03/26 08:02:41;;;;;;;19.48;12.50;;;11.70;99.90;;;;;;5097857;28;20232;-69
2021/03/26 08:05:18;;;;;;;21.45;13.70;;;11.70;99.90;;;;;;5097837;28;20684;-69
2021/03/26 08:08:14;;;;;;;21.85;14.00;;;11.80;99.90;;;;;;5097184;28;20205;-69
2021/03/26 08:10:51;;;;;;;21.92;13.75;;;11.70;99.90;;;;;;5061168;28;20202;-69
2021/03/26 08:13:48;;;;;;;22.77;14.57;;;11.70;99.90;;;;;;5097920;28;20293;-69
2021/03/26 08:16:45;;;;;;;22.77;14.00;;;11.80;99.90;;;;;;5071514;28;20297;-69
2021/03/26 08:19:18;;;;;;;20.27;14.20;;;11.80;99.70;;;;;;5097751;28;20313;-70
2021/03/26 08:21:55;;;;;;;23.88;14.93;;;11.70;99.80;;;;;;5097744;28;20289;-70
2021/03/26 08:24:51;;;;;;;19.55;14.25;;;11.70;99.90;;;;;;5097358;28;20250;-70
2021/03/26 08:27:36;;;;;;;21.83;13.82;;;11.80;99.90;;;;;;5097640;28;20289;-70
2021/03/26 08:30:30;;;;;;;22.85;14.55;;;11.90;99.90;;;;;;5081815;28;20285;-69
2021/03/26 08:33:08;;;;;;;18.10;12.60;;;11.90;99.60;;;;;;5096216;28;20628;-69
2021/03/26 08:35:58;;;;;;;20.40;12.63;;;11.90;99.50;;;;;;5095753;28;20264;-70
2021/03/26 08:38:36;;;;;;;17.90;11.75;;;11.90;99.90;;;;;;5095746;28;20198;-69
2021/03/26 08:41:05;;;;;;;16.88;12.20;;;12.00;99.90;;;;;;5095438;28;20285;-69
2021/03/26 08:43:34;;;;;;;18.73;12.65;;;12.20;99.80;;;;;;5095248;28;20212;-70
2021/03/26 08:46:09;;;;;;;24.38;13.63;;;12.10;99.10;;;;;;5095309;28;20305;-69
2021/03/26 08:48:43;;;;;;;20.25;12.73;;;12.20;99.10;;;;;;5095605;28;20663;-69
2021/03/26 08:51:25;;;;;;;20.42;12.82;;;12.40;99.10;;;;;;5095237;28;20293;-70
2021/03/26 08:54:02;;;;;;;18.50;10.93;;;12.40;98.60;;;;;;5095214;28;20760;-70
2021/03/26 08:56:47;;;;;;;17.85;11.18;;;12.80;99.10;;;;;;5094837;28;20678;-74
2021/03/26 08:59:36;;;;;;;15.65;10.70;;;13.30;98.10;;;;;;5095387;28;20287;-74
2021/03/26 09:02:32;;;;;;;18.30;10.25;;;13.80;96.80;;;;;;5095224;28;20703;-74
2021/03/26 09:05:17;;;;;;;17.23;10.23;;;14.10;96.50;;;;;;5096222;28;20218;-74
2021/03/26 09:07:58;;;;;;;14.85;10.95;;;14.30;95.40;;;;;;5097478;28;20290;-72
2021/03/26 09:10:54;;;;;;;14.18;9.70;;;14.70;94.70;;;;;;5097163;28;20183;-73
2021/03/26 09:13:31;;;;;;;16.60;10.43;;;14.70;93.90;;;;;;5091505;28;20207;-70
2021/03/26 09:16:03;;;;;;;14.77;10.05;;;14.80;93.40;;;;;;5097328;28;20532;-70
2021/03/26 09:18:50;;;;;;;14.55;10.10;;;14.80;93.40;;;;;;5096975;28;20229;-70
2021/03/26 09:21:47;;;;;;;15.25;9.52;;;14.70;93.10;;;;;;5097523;28;20211;-70
2021/03/26 09:24:37;;;;;;;15.75;10.25;;;14.90;92.40;;;;;;5097630;28;20317;-70
2021/03/26 09:27:17;;;;;;;15.38;10.50;;;15.00;91.50;;;;;;5097046;28;20251;-70
2021/03/26 09:29:56;;;;;;;15.05;10.25;;;15.10;91.10;;;;;;5096480;28;20200;-70
2021/03/26 09:32:27;;;;;;;15.07;10.18;;;15.30;90.90;;;;;;5096604;28;20236;-70
2021/03/26 09:35:06;;;;;;;15.00;10.82;;;15.40;90.10;;;;;;5096656;28;20574;-71
2021/03/26 09:37:39;;;;;;;13.05;9.15;;;15.40;90.10;;;;;;5096459;28;20282;-70
2021/03/26 09:40:13;;;;;;;13.25;8.32;;;15.40;89.00;;;;;;5096133;28;20318;-71
2021/03/26 09:42:43;;;;;;;13.65;9.25;;;15.40;88.60;;;;;;5096435;28;20308;-71
2021/03/26 09:45:17;;;;;;;13.20;8.52;;;15.30;87.80;;;;;;5096099;28;20280;-71
2021/03/26 09:48:10;;;;;;;12.75;9.07;;;15.40;87.20;;;;;;5095742;28;20290;-70
2021/03/26 09:50:42;;;;;;;10.20;8.00;;;15.60;85.40;;;;;;5096228;28;20210;-70
2021/03/26 09:53:12;;;;;;;12.32;8.50;;;16.20;85.30;;;;;;5095924;28;20560;-71
2021/03/26 09:55:41;;;;;;;14.27;8.00;;;17.40;82.30;;;;;;5097364;28;20580;-71
2021/03/26 09:58:18;;;;;;;9.47;6.87;;;18.50;74.20;;;;;;5096424;28;20250;-71
2021/03/26 10:00:51;;;;;;;9.93;7.10;;;20.00;70.00;;;;;;5095790;28;20561;-71
2021/03/26 10:03:45;;;;;;;8.27;6.60;;;21.40;63.20;;;;;;5095560;28;20433;-71
2021/03/26 10:06:25;;;;;;;7.30;6.50;;;22.10;57.20;;;;;;5096204;28;20436;-71
2021/03/26 10:09:08;;;;;;;8.23;6.30;;;22.10;55.40;;;;;;5094928;28;20695;-71
2021/03/26 10:11:52;;;;;;;7.70;6.23;;;22.00;56.70;;;;;;5095544;28;20452;-71
2021/03/26 10:14:24;;;;;;;7.97;6.20;;;22.10;54.20;;;;;;5095476;28;20502;-71
2021/03/26 10:16:54;;;;;;;7.20;6.17;;;22.10;53.50;;;;;;5095860;28;20436;-71
2021/03/26 10:19:28;;;;;;;8.80;6.80;;;22.40;53.50;;;;;;5095342;28;20488;-71
2021/03/26 10:21:58;;;;;;;8.37;6.30;;;22.10;53.80;;;;;;5095140;28;20447;-71
2021/03/26 10:24:29;;;;;;;6.83;6.10;;;22.50;52.60;;;;;;5095566;28;21036;-71
2021/03/26 10:27:04;;;;;;;9.20;6.87;;;24.10;51.50;;;;;;5095292;28;20446;-71
2021/03/26 10:29:41;;;;;;;8.60;7.00;;;25.10;47.70;;;;;;5095358;28;20435;-71
2021/03/26 10:32:17;;;;;;;8.10;7.30;;;25.70;46.70;;;;;;5095046;28;20446;-71
2021/03/26 10:34:45;;;;;;;7.00;6.33;;;26.40;43.90;;;;;;5095223;28;20516;-72
2021/03/26 10:37:34;;;;;;;8.17;6.40;;;26.10;43.10;;;;;;5094514;28;20551;-71
2021/03/26 10:40:05;;;;;;;7.93;6.60;;;26.70;43.10;;;;;;5085321;28;20480;-71
2021/03/26 10:42:40;;;;;;;9.00;7.67;;;26.40;43.10;;;;;;5094597;28;20444;-71
2021/03/26 10:45:19;;;;;;;8.57;7.07;;;25.70;41.00;;;;;;5095152;28;20478;-71
2021/03/26 10:47:51;;;;;;;7.67;6.83;;;24.80;43.60;;;;;;5095088;28;20441;-71
2021/03/26 10:50:40;;;;;;;7.90;5.90;;;23.90;45.60;;;;;;5095377;28;20436;-71
2021/03/26 10:53:12;;;;;;;6.77;6.10;;;23.40;45.00;;;;;;5095986;28;20441;-71
2021/03/26 10:55:45;;;;;;;7.17;6.03;;;23.70;46.00;;;;;;5095766;28;20990;-71
2021/03/26 10:58:24;;;;;;;6.60;5.90;;;23.70;46.40;;;;;;5095597;28;20465;-71
2021/03/26 11:01:02;;;;;;;5.57;4.93;;;24.30;45.30;;;;;;5095004;28;20479;-71
2021/03/26 11:03:32;;;;;;;5.40;4.90;;;24.80;44.60;;;;;;5094744;28;20810;-71
2021/03/26 11:06:00;;;;;;;5.37;4.37;;;25.00;43.30;;;;;;5094916;28;20516;-72
2021/03/26 11:08:50;;;;;;;4.37;3.97;;;23.60;42.30;;;;;;5094680;28;20442;-71
2021/03/26 11:11:29;;;;;;;6.70;5.17;;;23.70;43.30;;;;;;5095184;28;20444;-71
2021/03/26 11:14:33;;;;;;;6.53;5.00;;;23.10;43.30;;;;;;5094182;28;20461;-71
2021/03/26 11:17:11;;;;;;;6.80;5.00;;;23.10;44.20;;;;;;5094701;28;20476;-71
2021/03/26 11:19:47;;;;;;;4.50;4.10;;;22.50;44.60;;;;;;5094272;28;20561;-71
2021/03/26 11:22:19;;;;;;;3.63;3.33;;;21.70;44.90;;;;;;5094219;28;20526;-71
2021/03/26 11:25:04;;;;;;;3.30;3.00;;;21.90;45.30;;;;;;5094566;28;20946;-71
2021/03/26 11:27:36;;;;;;;3.80;3.37;;;22.30;43.90;;;;;;5093788;28;20456;-71
2021/03/26 11:30:22;;;;;;;4.07;3.63;;;22.40;44.60;;;;;;5094855;28;20437;-71
2021/03/26 11:32:54;;;;;;;4.50;3.23;;;23.10;42.80;;;;;;5094745;28;20467;-71
2021/03/26 11:35:22;;;;;;;4.47;4.07;;;22.80;41.90;;;;;;5094388;28;20482;-71
2021/03/26 11:37:53;;;;;;;4.83;4.23;;;22.70;42.50;;;;;;5094046;28;20976;-71
2021/03/26 11:40:27;;;;;;;5.77;4.10;;;23.20;42.20;;;;;;5095205;28;20480;-71
2021/03/26 11:42:55;;;;;;;4.90;3.73;;;23.70;41.20;;;;;;5095079;28;20450;-71
2021/03/26 11:45:42;;;;;;;3.73;3.43;;;24.10;41.20;;;;;;5094733;28;20577;-71
2021/03/26 11:48:27;;;;;;;5.97;3.90;;;24.00;40.00;;;;;;5094597;28;20474;-71
2021/03/26 11:51:06;;;;;;;3.97;3.50;;;23.90;40.50;;;;;;5094997;28;20762;-71
2021/03/26 11:53:41;;;;;;;3.70;3.40;;;24.40;39.70;;;;;;5094030;28;20438;-71
2021/03/26 11:56:40;;;;;;;4.77;3.03;;;24.10;38.90;;;;;;5094974;28;20773;-71
2021/03/26 11:59:44;;;;;;;5.70;4.27;;;24.10;38.90;;;;;;5094500;28;20483;-71
2021/03/26 12:02:35;;;;;;;4.30;3.97;;;23.90;40.30;;;;;;5093290;28;20451;-71
2021/03/26 12:05:08;;;;;;;4.77;4.27;;;23.70;40.10;;;;;;5094094;28;20546;-71
2021/03/26 12:07:38;;;;;;;5.47;4.00;;;23.40;40.60;;;;;;5093589;28;20443;-71
2021/03/26 12:10:14;;;;;;;5.87;5.30;;;23.20;41.60;;;;;;5093986;28;20517;-71
2021/03/26 12:12:48;;;;;;;5.73;4.47;;;22.50;41.40;;;;;;5093702;28;20779;-71
2021/03/26 12:15:22;;;;;;;4.60;4.03;;;22.20;43.20;;;;;;5093660;28;20956;-71
2021/03/26 12:18:00;;;;;;;6.73;5.17;;;21.90;44.10;;;;;;5093197;28;20435;-71
2021/03/26 12:20:29;;;;;;;5.63;5.00;;;21.40;45.30;;;;;;5094473;28;20492;-71
2021/03/26 12:23:28;;;;;;;6.40;5.27;;;20.80;45.00;;;;;;5094204;28;20870;-71
2021/03/26 12:26:04;;;;;;;6.80;4.60;;;20.60;47.10;;;;;;5078541;28;20805;-71
2021/03/26 12:28:42;;;;;;;7.07;4.73;;;20.40;46.80;;;;;;5094238;28;20456;-71
2021/03/26 12:31:16;;;;;;;5.23;4.30;;;20.10;47.50;;;;;;5096751;28;20428;-71
2021/03/26 12:33:47;;;;;;;5.83;4.13;;;19.90;47.40;;;;;;5098121;28;20527;-71
2021/03/26 12:36:21;;;;;;;4.13;3.40;;;20.00;47.40;;;;;;5097597;28;20424;-70
2021/03/26 12:38:55;;;;;;;4.43;3.80;;;20.10;47.90;;;;;;5098117;28;20479;-71
2021/03/26 12:41:38;;;;;;;5.73;4.20;;;20.20;48.50;;;;;;5097133;28;20887;-71
2021/03/26 12:44:12;;;;;;;5.13;4.57;;;20.30;48.10;;;;;;5097249;28;20823;-71
2021/03/26 12:46:58;;;;;;;6.63;4.80;;;20.20;47.00;;;;;;5097556;28;20788;-71
2021/03/26 12:49:39;;;;;;;6.23;4.30;;;20.20;48.00;;;;;;5097242;28;20916;-71
2021/03/26 12:52:26;;;;;;;4.30;3.90;;;20.10;47.20;;;;;;5097377;28;20870;-71
2021/03/26 12:55:04;;;;;;;4.20;3.70;;;20.20;47.00;;;;;;5097519;28;20530;-71
2021/03/26 12:57:38;;;;;;;4.50;4.07;;;20.20;47.30;;;;;;5097243;28;20826;-71
2021/03/26 13:00:12;;;;;;;3.00;2.50;;;20.20;48.10;;;;;;5097688;28;20530;-71
2021/03/26 13:02:42;;;;;;;4.97;3.70;;;20.20;45.70;;;;;;5097831;28;20442;-71
2021/03/26 13:05:16;;;;;;;5.60;4.00;;;20.10;47.00;;;;;;5097882;28;20560;-71
2021/03/26 13:07:47;;;;;;;4.27;3.60;;;20.20;48.40;;;;;;5097295;28;20532;-71
2021/03/26 13:10:41;;;;;;;3.93;3.00;;;20.00;48.00;;;;;;5097437;28;20536;-71
2021/03/26 13:13:18;;;;;;;4.40;3.47;;;20.10;47.00;;;;;;5097043;28;20445;-71
2021/03/26 13:16:12;;;;;;;3.40;3.10;;;20.10;45.90;;;;;;5097522;28;20501;-71
2021/03/26 13:18:51;;;;;;;3.93;3.20;;;20.20;45.10;;;;;;5097172;28;20498;-71
2021/03/26 13:21:38;;;;;;;3.33;2.73;;;20.20;45.40;;;;;;5096856;28;20569;-71
2021/03/26 13:24:22;;;;;;;4.37;3.40;;;20.20;45.50;;;;;;5096985;28;20461;-71
2021/03/26 13:26:49;;;;;;;3.43;3.13;;;20.20;45.60;;;;;;5096560;28;20530;-71
2021/03/26 13:29:22;;;;;;;3.00;2.67;;;20.20;45.80;;;;;;5096849;28;20526;-71
2021/03/26 13:31:51;;;;;;;3.50;3.10;;;20.20;45.70;;;;;;5097326;28;20495;-71
2021/03/26 13:34:22;;;;;;;3.00;2.67;;;20.20;46.40;;;;;;5097559;28;20463;-71